createdAt,value
2019-04-06T00:00:09.360Z,19.80
2019-04-06T00:02:41.651Z,22.50
2019-04-06T00:05:11.825Z,20.40
2019-04-06T00:07:41.111Z,22.58
2019-04-06T00:10:10.428Z,22.40
2019-04-06T00:12:39.982Z,28.38
2019-04-06T00:15:09.484Z,20.48
2019-04-06T00:17:39.086Z,27.87
2019-04-06T00:20:08.665Z,26.05
2019-04-06T00:22:37.931Z,25.72
2019-04-06T00:25:08.012Z,27.62
2019-04-06T00:27:37.761Z,22.20
2019-04-06T00:30:10.218Z,24.85
2019-04-06T00:32:46.902Z,21.65
2019-04-06T00:35:16.237Z,22.70
2019-04-06T00:37:45.758Z,22.40
2019-04-06T00:40:15.489Z,21.33
2019-04-06T00:42:45.103Z,21.02
2019-04-06T00:45:14.512Z,21.07
2019-04-06T00:47:44.040Z,24.65
2019-04-06T00:50:13.515Z,25.95
2019-04-06T00:52:42.785Z,24.37
2019-04-06T00:55:12.121Z,25.27
2019-04-06T00:57:41.397Z,25.55
2019-04-06T01:00:11.488Z,25.23
2019-04-06T01:02:41.046Z,29.45
2019-04-06T01:05:10.647Z,25.00
2019-04-06T01:07:40.247Z,23.90
2019-04-06T01:10:09.832Z,24.47
2019-04-06T01:12:39.365Z,25.17
2019-04-06T01:15:09.541Z,22.62
2019-04-06T01:17:39.060Z,25.30
2019-04-06T01:20:09.048Z,25.32
2019-04-06T01:22:38.368Z,25.85
2019-04-06T01:25:08.971Z,27.05
2019-04-06T01:27:38.548Z,25.92
2019-04-06T01:30:08.880Z,22.87
2019-04-06T01:32:38.179Z,23.50
2019-04-06T01:35:07.890Z,23.00
2019-04-06T01:37:37.423Z,24.75
2019-04-06T01:40:07.799Z,23.38
2019-04-06T01:42:37.082Z,23.02
2019-04-06T01:45:08.112Z,25.00
2019-04-06T01:47:37.383Z,24.77
2019-04-06T01:50:06.919Z,30.80
2019-04-06T01:52:36.201Z,28.83
2019-04-06T01:55:06.649Z,29.90
2019-04-06T01:57:36.605Z,30.25
2019-04-06T02:00:11.093Z,27.07
2019-04-06T02:02:42.023Z,29.32
2019-04-06T02:05:12.328Z,27.40
2019-04-06T02:07:41.611Z,25.57
2019-04-06T02:10:11.034Z,26.75
2019-04-06T02:12:40.370Z,26.87
2019-04-06T02:15:09.883Z,28.38
2019-04-06T02:17:39.170Z,28.98
2019-04-06T02:20:08.978Z,25.35
2019-04-06T02:22:38.250Z,25.43
2019-04-06T02:25:07.879Z,28.57
2019-04-06T02:27:37.145Z,32.35
2019-04-06T02:30:10.466Z,36.90
2019-04-06T02:32:57.480Z,36.20
2019-04-06T02:35:36.952Z,29.63
2019-04-06T02:38:19.984Z,42.03
2019-04-06T02:41:07.381Z,39.73
2019-04-06T02:43:38.408Z,31.87
2019-04-06T02:46:07.672Z,32.85
2019-04-06T02:48:36.959Z,35.08
2019-04-06T02:51:06.224Z,33.50
2019-04-06T02:53:35.510Z,31.82
2019-04-06T02:56:04.979Z,32.33
2019-04-06T02:58:34.402Z,31.02
2019-04-06T03:01:05.850Z,31.20
2019-04-06T03:03:35.117Z,27.30
2019-04-06T03:06:04.668Z,30.45
2019-04-06T03:08:33.930Z,30.60
2019-04-06T03:11:03.326Z,32.63
2019-04-06T03:13:32.547Z,32.35
2019-04-06T03:16:01.991Z,28.85
2019-04-06T03:18:31.272Z,30.10
2019-04-06T03:21:00.769Z,28.25
2019-04-06T03:23:30.091Z,30.05
2019-04-06T03:25:59.377Z,30.62
2019-04-06T03:28:28.630Z,34.55
2019-04-06T03:30:57.947Z,36.58
2019-04-06T03:33:27.964Z,29.00
2019-04-06T03:35:57.281Z,31.55
2019-04-06T03:38:26.553Z,30.80
2019-04-06T03:40:55.825Z,30.35
2019-04-06T03:43:25.103Z,28.35
2019-04-06T03:45:54.370Z,38.28
2019-04-06T03:48:23.905Z,31.33
2019-04-06T03:50:53.223Z,36.08
2019-04-06T03:53:22.575Z,33.28
2019-04-06T03:55:51.801Z,35.45
2019-04-06T03:58:21.363Z,30.77
2019-04-06T04:00:50.662Z,32.90
2019-04-06T04:03:19.915Z,32.42
2019-04-06T04:05:49.268Z,36.28
2019-04-06T04:08:18.631Z,35.13
2019-04-06T04:10:48.203Z,31.85
2019-04-06T04:13:17.480Z,33.13
2019-04-06T04:15:46.799Z,30.10
2019-04-06T04:18:16.377Z,33.55
2019-04-06T04:20:46.194Z,30.37
2019-04-06T04:23:15.803Z,34.60
2019-04-06T04:25:45.399Z,31.85
2019-04-06T04:28:15.013Z,32.33
2019-04-06T04:30:44.623Z,37.40
2019-04-06T04:33:14.067Z,35.85
2019-04-06T04:35:43.695Z,32.05
2019-04-06T04:38:13.232Z,28.77
2019-04-06T04:40:42.783Z,35.00
2019-04-06T04:43:12.228Z,36.33
2019-04-06T04:45:41.522Z,37.20
2019-04-06T04:48:11.027Z,35.10
2019-04-06T04:50:40.320Z,35.30
2019-04-06T04:53:09.638Z,33.67
2019-04-06T04:55:38.919Z,29.55
2019-04-06T04:58:08.147Z,35.38
2019-04-06T05:00:37.573Z,31.55
2019-04-06T05:03:06.778Z,36.68
2019-04-06T05:05:36.865Z,35.65
2019-04-06T05:08:06.138Z,36.30
2019-04-06T05:10:35.417Z,38.80
2019-04-06T05:13:04.684Z,39.85
2019-04-06T05:15:56.693Z,44.00
2019-04-06T05:18:25.962Z,35.45
2019-04-06T05:20:55.250Z,32.63
2019-04-06T05:23:24.530Z,31.85
2019-04-06T05:25:55.159Z,30.50
2019-04-06T05:28:24.532Z,34.03
2019-04-06T05:30:54.607Z,36.95
2019-04-06T05:33:23.938Z,36.23
2019-04-06T05:35:53.821Z,35.95
2019-04-06T05:38:23.453Z,37.17
2019-04-06T05:40:52.987Z,38.73
2019-04-06T05:43:22.287Z,37.15
2019-04-06T05:45:51.591Z,35.88
2019-04-06T05:48:21.291Z,41.42
2019-04-06T05:50:51.480Z,36.93
2019-04-06T05:53:20.785Z,38.55
2019-04-06T05:55:51.632Z,38.38
2019-04-06T05:58:25.840Z,35.55
2019-04-06T06:00:55.201Z,37.10
2019-04-06T06:03:24.600Z,38.15
2019-04-06T06:05:57.350Z,36.65
2019-04-06T06:08:26.771Z,39.05
2019-04-06T06:10:55.958Z,39.50
2019-04-06T06:13:25.228Z,45.17
2019-04-06T06:15:54.969Z,38.92
2019-04-06T06:18:31.178Z,40.17
2019-04-06T06:21:00.498Z,42.50
2019-04-06T06:23:29.998Z,44.38
2019-04-06T06:25:59.318Z,45.15
2019-04-06T06:28:28.853Z,46.00
2019-04-06T06:30:58.614Z,49.55
2019-04-06T06:33:28.268Z,41.83
2019-04-06T06:35:57.874Z,39.53
2019-04-06T06:38:27.211Z,36.95
2019-04-06T06:40:56.464Z,35.95
2019-04-06T06:43:25.795Z,35.28
2019-04-06T06:45:55.071Z,42.17
2019-04-06T06:48:24.341Z,35.48
2019-04-06T06:50:53.613Z,37.85
2019-04-06T06:53:22.927Z,35.78
2019-04-06T06:56:11.540Z,33.08
2019-04-06T06:58:40.818Z,35.33
2019-04-06T07:01:10.086Z,33.95
2019-04-06T07:03:39.364Z,31.05
2019-04-06T07:06:08.635Z,28.25
2019-04-06T07:08:39.625Z,38.48
2019-04-06T07:11:08.990Z,33.90
2019-04-06T07:13:38.274Z,38.20
2019-04-06T07:16:07.794Z,39.83
2019-04-06T07:18:37.499Z,34.98
2019-04-06T07:21:06.762Z,31.93
2019-04-06T07:23:36.498Z,34.80
2019-04-06T07:26:05.846Z,32.55
2019-04-06T07:28:38.131Z,35.45
2019-04-06T07:31:06.767Z,33.02
2019-04-06T07:33:36.046Z,32.17
2019-04-06T07:36:05.398Z,32.08
2019-04-06T07:38:34.672Z,34.15
2019-04-06T07:41:04.326Z,35.92
2019-04-06T07:43:33.727Z,31.57
2019-04-06T07:46:02.949Z,33.50
2019-04-06T07:48:32.241Z,36.10
2019-04-06T07:51:01.549Z,35.63
2019-04-06T07:53:30.817Z,35.33
2019-04-06T07:56:00.344Z,39.00
2019-04-06T07:58:29.882Z,34.53
2019-04-06T08:00:59.332Z,31.67
2019-04-06T08:03:28.799Z,32.77
2019-04-06T08:05:58.084Z,29.57
2019-04-06T08:08:28.979Z,31.93
2019-04-06T08:10:58.802Z,30.17
2019-04-06T08:13:28.335Z,36.33
2019-04-06T08:15:57.875Z,33.63
2019-04-06T08:18:27.223Z,35.50
2019-04-06T08:20:57.021Z,37.80
2019-04-06T08:23:26.333Z,38.23
2019-04-06T08:25:56.346Z,32.90
2019-04-06T08:28:25.747Z,30.63
2019-04-06T08:30:55.238Z,29.97
2019-04-06T08:33:24.798Z,33.20
2019-04-06T08:35:54.404Z,35.27
2019-04-06T08:38:23.811Z,32.40
2019-04-06T08:40:53.430Z,29.13
2019-04-06T08:43:23.231Z,31.77
2019-04-06T08:45:52.939Z,32.23
2019-04-06T08:48:22.480Z,30.90
2019-04-06T08:50:52.049Z,33.40
2019-04-06T08:53:21.591Z,33.60
2019-04-06T08:55:51.100Z,32.27
2019-04-06T08:58:20.668Z,32.87
2019-04-06T09:00:50.247Z,31.90
2019-04-06T09:03:19.783Z,34.70
2019-04-06T09:05:49.390Z,33.17
2019-04-06T09:08:19.032Z,36.37
2019-04-06T09:10:48.608Z,29.17
2019-04-06T09:13:18.134Z,33.23
2019-04-06T09:15:47.427Z,36.17
2019-04-06T09:18:16.701Z,30.67
2019-04-06T09:20:46.624Z,37.53
2019-04-06T09:23:15.905Z,34.50
2019-04-06T09:25:45.189Z,29.10
2019-04-06T09:28:14.469Z,38.77
2019-04-06T09:30:44.053Z,32.80
2019-04-06T09:33:13.396Z,34.83
2019-04-06T09:35:42.686Z,36.90
2019-04-06T09:38:20.426Z,35.17
2019-04-06T09:40:52.544Z,31.90
2019-04-06T09:43:22.308Z,32.97
2019-04-06T09:46:09.488Z,31.00
2019-04-06T09:48:49.189Z,32.77
2019-04-06T09:51:26.272Z,35.57
2019-04-06T09:54:09.420Z,36.57
2019-04-06T09:56:40.536Z,34.90
2019-04-06T09:59:11.615Z,32.00
2019-04-06T10:01:45.500Z,35.63
2019-04-06T10:04:19.059Z,33.70
2019-04-06T10:06:55.761Z,32.40
2019-04-06T10:09:29.626Z,35.20
2019-04-06T10:12:03.407Z,31.43
2019-04-06T10:14:51.775Z,29.97
2019-04-06T10:17:38.888Z,35.87
2019-04-06T10:20:21.753Z,34.60
2019-04-06T10:22:55.372Z,38.40
2019-04-06T10:25:28.766Z,33.70
2019-04-06T10:28:16.376Z,36.67
2019-04-06T10:30:47.299Z,30.87
2019-04-06T10:33:34.331Z,33.03
2019-04-06T10:36:21.226Z,30.23
2019-04-06T10:38:52.055Z,35.50
2019-04-06T10:41:23.003Z,31.87
2019-04-06T10:43:56.645Z,29.43
2019-04-06T10:46:39.181Z,31.07
2019-04-06T10:49:10.124Z,31.20
2019-04-06T10:51:47.060Z,32.03
2019-04-06T10:54:34.528Z,31.10
2019-04-06T10:57:05.467Z,28.00
2019-04-06T10:59:36.417Z,27.50
2019-04-06T11:02:24.083Z,27.23
2019-04-06T11:04:55.009Z,26.80
2019-04-06T11:07:38.457Z,28.53
2019-04-06T11:10:28.690Z,28.10
2019-04-06T11:12:59.900Z,28.13
2019-04-06T11:15:40.354Z,25.83
2019-04-06T11:18:14.263Z,24.13
2019-04-06T11:20:54.441Z,24.40
2019-04-06T11:23:42.048Z,22.50
2019-04-06T11:26:12.975Z,16.80
2019-04-06T11:28:44.229Z,18.07
2019-04-06T11:31:18.242Z,19.30
2019-04-06T11:34:08.018Z,16.10
2019-04-06T11:36:41.450Z,15.67
2019-04-06T11:39:12.753Z,16.67
2019-04-06T11:41:49.647Z,14.43
2019-04-06T11:44:36.162Z,16.20
2019-04-06T11:47:13.075Z,14.60
2019-04-06T11:49:43.999Z,14.63
2019-04-06T11:52:23.627Z,13.20
2019-04-06T11:54:54.610Z,13.77
2019-04-06T11:57:37.526Z,14.37
2019-04-06T12:00:25.541Z,16.40
2019-04-06T12:03:01.938Z,14.80
2019-04-06T12:05:33.225Z,15.30
2019-04-06T12:08:20.956Z,16.87
2019-04-06T12:11:00.764Z,14.80
2019-04-06T12:13:48.166Z,15.73
2019-04-06T12:16:35.709Z,15.53
2019-04-06T12:19:13.092Z,16.67
2019-04-06T12:21:44.294Z,17.30
2019-04-06T12:24:24.696Z,13.93
2019-04-06T12:27:11.252Z,16.13
2019-04-06T12:29:48.524Z,13.33
2019-04-06T12:32:28.919Z,13.93
2019-04-06T12:35:12.239Z,14.80
2019-04-06T12:37:43.359Z,15.30
2019-04-06T12:40:29.107Z,14.07
2019-04-06T12:43:00.334Z,14.47
2019-04-06T12:45:47.636Z,15.00
2019-04-06T12:48:21.847Z,15.87
2019-04-06T12:50:52.776Z,14.17
2019-04-06T12:53:35.738Z,12.93
2019-04-06T12:56:06.806Z,12.90
2019-04-06T12:58:46.711Z,12.60
2019-04-06T13:01:26.615Z,12.13
2019-04-06T13:03:57.848Z,11.57
2019-04-06T13:06:28.745Z,12.97
2019-04-06T13:09:11.374Z,12.03
2019-04-06T13:11:45.145Z,10.60
2019-04-06T13:14:25.523Z,11.90
2019-04-06T13:16:56.753Z,10.60
2019-04-06T13:19:34.282Z,12.23
2019-04-06T13:22:05.416Z,10.13
2019-04-06T13:24:39.308Z,11.00
2019-04-06T13:27:16.183Z,10.70
2019-04-06T13:30:02.364Z,10.57
2019-04-06T13:32:45.340Z,12.87
2019-04-06T13:35:16.396Z,13.50
2019-04-06T13:37:57.039Z,11.67
2019-04-06T13:40:41.521Z,9.93
2019-04-06T13:43:18.656Z,9.93
2019-04-06T13:45:52.654Z,11.67
2019-04-06T13:48:35.868Z,11.00
2019-04-06T13:51:09.557Z,12.20
2019-04-06T13:53:49.228Z,10.50
2019-04-06T13:56:22.707Z,11.67
2019-04-06T13:58:56.548Z,11.13
2019-04-06T14:01:36.222Z,11.90
2019-04-06T14:04:07.422Z,11.40
2019-04-06T14:06:41.478Z,12.10
2019-04-06T14:09:28.648Z,11.10
2019-04-06T14:12:08.823Z,16.87
2019-04-06T14:14:52.318Z,9.90
2019-04-06T14:17:23.156Z,10.90
2019-04-06T14:20:00.462Z,9.90
2019-04-06T14:22:40.870Z,10.97
2019-04-06T14:25:20.978Z,10.47
2019-04-06T14:27:51.894Z,10.40
2019-04-06T14:30:37.851Z,11.93
2019-04-06T14:33:25.340Z,10.50
2019-04-06T14:36:12.962Z,11.80
2019-04-06T14:38:59.175Z,12.50
2019-04-06T14:41:45.281Z,10.30
2019-04-06T14:44:16.556Z,11.33
2019-04-06T14:46:53.251Z,10.27
2019-04-06T14:49:33.339Z,11.10
2019-04-06T14:52:07.371Z,10.03
2019-04-06T14:54:41.273Z,11.37
2019-04-06T14:57:12.496Z,9.77
2019-04-06T14:59:58.915Z,10.93
2019-04-06T15:02:29.811Z,10.70
2019-04-06T15:05:09.514Z,11.70
2019-04-06T15:07:43.133Z,8.70
2019-04-06T15:10:17.291Z,9.03
2019-04-06T15:12:48.870Z,10.17
2019-04-06T15:15:26.216Z,8.60
2019-04-06T15:17:57.062Z,7.53
2019-04-06T15:20:28.224Z,8.73
2019-04-06T15:23:17.254Z,8.20
2019-04-06T15:25:51.397Z,8.60
2019-04-06T15:28:25.405Z,10.10
2019-04-06T15:30:56.670Z,8.70
2019-04-06T15:33:33.558Z,9.23
2019-04-06T15:36:04.941Z,9.77
2019-04-06T15:38:41.960Z,10.17
2019-04-06T15:41:14.323Z,9.30
2019-04-06T15:43:54.687Z,11.13
2019-04-06T15:46:25.781Z,8.90
2019-04-06T15:48:56.982Z,9.00
2019-04-06T15:51:27.903Z,9.10
2019-04-06T15:54:01.606Z,8.53
2019-04-06T15:59:20.859Z,8.80
2019-04-06T16:02:00.089Z,9.63
2019-04-06T16:04:27.494Z,9.27
2019-04-06T16:07:04.698Z,10.00
2019-04-06T16:09:37.404Z,8.47
2019-04-06T16:12:14.552Z,8.07
2019-04-06T16:14:51.837Z,8.90
2019-04-06T16:17:41.233Z,9.10
2019-04-06T16:20:28.942Z,8.07
2019-04-06T16:23:16.443Z,9.07
2019-04-06T16:26:02.751Z,9.67
2019-04-06T16:28:36.431Z,10.20
2019-04-06T16:31:08.036Z,8.80
2019-04-06T16:33:38.956Z,9.27
2019-04-06T16:36:12.647Z,8.60
2019-04-06T16:38:43.510Z,10.47
2019-04-06T16:41:30.864Z,9.33
2019-04-06T16:44:07.831Z,9.50
2019-04-06T16:46:54.858Z,8.17
2019-04-06T16:49:42.193Z,7.77
2019-04-06T16:52:13.081Z,9.23
2019-04-06T16:54:59.977Z,8.37
2019-04-06T16:57:45.870Z,8.30
2019-04-06T17:00:20.853Z,8.30
2019-04-06T17:02:51.871Z,7.53
2019-04-06T17:05:39.493Z,10.57
2019-04-06T17:08:16.777Z,10.90
2019-04-06T17:10:50.987Z,8.60
2019-04-06T17:13:24.740Z,9.33
2019-04-06T17:16:08.340Z,9.60
2019-04-06T17:18:39.970Z,8.57
2019-04-06T17:21:20.294Z,9.63
2019-04-06T17:23:51.517Z,9.40
2019-04-06T17:26:38.842Z,10.13
2019-04-06T17:29:26.547Z,10.80
2019-04-06T17:32:03.526Z,9.30
2019-04-06T17:34:34.934Z,10.30
2019-04-06T17:37:05.834Z,11.40
2019-04-06T17:39:40.147Z,11.40
2019-04-06T17:42:13.630Z,10.50
2019-04-06T17:44:56.615Z,11.20
2019-04-06T17:47:27.704Z,10.83
2019-04-06T17:50:11.054Z,11.90
2019-04-06T17:52:45.017Z,11.30
2019-04-06T17:55:16.181Z,12.37
2019-04-06T17:57:50.137Z,11.17
2019-04-06T18:00:40.667Z,13.07
2019-04-06T18:03:20.744Z,13.30
2019-04-06T18:06:08.273Z,14.27
2019-04-06T18:08:39.210Z,14.10
2019-04-06T18:11:10.368Z,15.73
2019-04-06T18:13:52.839Z,14.87
2019-04-06T18:16:24.234Z,13.00
2019-04-06T18:18:53.488Z,13.83
2019-04-06T18:21:23.524Z,14.70
2019-04-06T18:23:53.083Z,16.13
2019-04-06T18:26:22.674Z,17.77
2019-04-06T18:28:53.371Z,18.30
2019-04-06T18:31:40.741Z,17.83
2019-04-06T18:34:10.305Z,16.23
2019-04-06T18:36:59.584Z,16.10
2019-04-06T18:39:29.114Z,19.27
2019-04-06T18:41:58.715Z,16.47
2019-04-06T18:44:28.232Z,17.87
2019-04-06T18:46:57.528Z,17.43
2019-04-06T18:49:27.542Z,16.83
2019-04-06T18:51:57.358Z,17.30
2019-04-06T18:54:26.659Z,18.10
2019-04-06T18:56:55.937Z,17.10
2019-04-06T18:59:25.218Z,17.27
2019-04-06T19:01:54.501Z,18.07
2019-04-06T19:04:23.854Z,19.27
2019-04-06T19:06:53.456Z,16.97
2019-04-06T19:09:25.274Z,19.00
2019-04-06T19:11:56.957Z,18.33
2019-04-06T19:14:25.907Z,18.13
2019-04-06T19:16:55.925Z,20.20
2019-04-06T19:19:25.278Z,19.83
2019-04-06T19:21:54.868Z,19.47
2019-04-06T19:24:24.156Z,20.10
2019-04-06T19:26:54.178Z,21.23
2019-04-06T19:29:23.954Z,23.10
2019-04-06T19:31:53.303Z,20.23
2019-04-06T19:34:22.906Z,20.53
2019-04-06T19:36:52.516Z,21.90
2019-04-06T19:39:21.807Z,20.97
2019-04-06T19:41:51.422Z,19.67
2019-04-06T19:44:21.617Z,20.83
2019-04-06T19:46:51.305Z,19.10
2019-04-06T19:49:20.653Z,20.40
2019-04-06T19:51:50.264Z,23.37
2019-04-06T19:54:19.866Z,23.20
2019-04-06T19:56:49.482Z,22.90
2019-04-06T19:59:19.525Z,23.33
2019-04-06T20:01:49.259Z,21.43
2019-04-06T20:04:18.474Z,20.13
2019-04-06T20:06:47.990Z,21.93
2019-04-06T20:09:17.625Z,21.50
2019-04-06T20:11:47.222Z,20.13
2019-04-06T20:14:17.217Z,22.13
2019-04-06T20:16:46.751Z,21.40
2019-04-06T20:19:16.052Z,21.23
2019-04-06T20:21:45.429Z,20.03
2019-04-06T20:24:14.699Z,21.23
2019-04-06T20:26:44.264Z,21.43
2019-04-06T20:29:13.898Z,21.80
2019-04-06T20:31:44.572Z,20.47
2019-04-06T20:34:14.206Z,21.77
2019-04-06T20:36:43.817Z,22.50
2019-04-06T20:39:13.345Z,21.33
2019-04-06T20:41:42.931Z,23.10
2019-04-06T20:44:12.232Z,22.63
2019-04-06T20:46:41.573Z,22.27
2019-04-06T20:49:10.964Z,22.90
2019-04-06T20:51:41.563Z,23.63
2019-04-06T20:54:10.844Z,22.47
2019-04-06T20:56:52.472Z,21.90
2019-04-06T20:59:11.951Z,24.43
2019-04-06T21:01:41.682Z,21.47
2019-04-06T21:04:11.237Z,21.17
2019-04-06T21:06:40.844Z,21.73
2019-04-06T21:09:15.105Z,24.10
2019-04-06T21:11:44.826Z,20.70
2019-04-06T21:14:14.448Z,22.00
2019-04-06T21:16:43.707Z,22.20
2019-04-06T21:19:13.154Z,21.77
2019-04-06T21:21:42.795Z,23.50
2019-04-06T21:24:12.543Z,21.50
2019-04-06T21:26:41.775Z,23.53
2019-04-06T21:29:11.492Z,24.10
2019-04-06T21:31:40.777Z,23.90
2019-04-06T21:34:14.226Z,22.17
2019-04-06T21:36:41.660Z,24.13
2019-04-06T21:39:11.174Z,20.23
2019-04-06T21:41:40.697Z,23.03
2019-04-06T21:44:10.404Z,22.67
2019-04-06T21:46:40.359Z,24.00
2019-04-06T21:49:09.644Z,23.87
2019-04-06T21:51:39.145Z,22.07
2019-04-06T21:54:08.494Z,23.27
2019-04-06T21:56:37.777Z,23.40
2019-04-06T21:59:07.763Z,22.30
2019-04-06T22:01:37.432Z,23.43
2019-04-06T22:04:06.864Z,25.43
2019-04-06T22:06:36.143Z,22.60
2019-04-06T22:09:09.554Z,25.53
2019-04-06T22:11:38.840Z,21.50
2019-04-06T22:14:08.113Z,24.63
2019-04-06T22:16:38.061Z,23.90
2019-04-06T22:19:07.905Z,20.73
2019-04-06T22:21:37.386Z,22.97
2019-04-06T22:24:06.672Z,23.43
2019-04-06T22:26:36.275Z,23.47
2019-04-06T22:29:06.523Z,21.40
2019-04-06T22:31:35.944Z,23.63
2019-04-06T22:34:05.269Z,21.70
2019-04-06T22:36:34.813Z,24.60
2019-04-06T22:39:06.399Z,21.10
2019-04-06T22:41:36.435Z,23.33
2019-04-06T22:44:06.110Z,26.13
2019-04-06T22:46:35.633Z,24.07
2019-04-06T22:49:05.594Z,22.27
2019-04-06T22:51:35.631Z,23.40
2019-04-06T22:54:05.295Z,24.90
2019-04-06T22:56:34.840Z,26.33
2019-04-06T22:59:04.450Z,23.47
2019-04-06T23:01:35.530Z,24.23
2019-04-06T23:04:23.046Z,24.32
2019-04-06T23:06:53.990Z,24.63
2019-04-06T23:09:23.271Z,22.27
2019-04-06T23:11:52.632Z,21.00
2019-04-06T23:14:22.465Z,20.90
2019-04-06T23:16:51.759Z,23.83
2019-04-06T23:19:21.411Z,25.00
2019-04-06T23:21:50.708Z,26.90
2019-04-06T23:24:20.421Z,26.70
2019-04-06T23:26:49.872Z,25.72
2019-04-06T23:29:19.520Z,25.05
2019-04-06T23:31:49.526Z,26.83
2019-04-06T23:34:19.308Z,27.95
2019-04-06T23:36:48.850Z,28.75
2019-04-06T23:39:18.512Z,27.73
2019-04-06T23:41:48.337Z,27.45
2019-04-06T23:44:18.384Z,26.75
2019-04-06T23:46:47.769Z,27.35
2019-04-06T23:49:17.873Z,28.52
2019-04-06T23:51:47.633Z,27.47
2019-04-06T23:54:17.327Z,27.35
2019-04-06T23:56:47.571Z,26.90
2019-04-06T23:59:17.610Z,27.98
